createdAt,value
2023-11-21T00:00:38.191Z,100667.91
2023-11-21T00:03:09.609Z,100661.94
2023-11-21T00:05:39.333Z,100667.81
2023-11-21T00:08:09.108Z,100659.34
2023-11-21T00:10:41.362Z,100668.69
2023-11-21T00:13:11.421Z,100664.50
2023-11-21T00:15:41.143Z,100666.94
2023-11-21T00:18:11.195Z,100670.38
2023-11-21T00:20:41.487Z,100672.06
2023-11-21T00:23:12.538Z,100673.84
2023-11-21T00:25:43.068Z,100667.91
2023-11-21T00:28:13.141Z,100673.84
2023-11-21T00:30:42.853Z,100671.31
2023-11-21T00:33:13.186Z,100674.72
2023-11-21T00:35:42.921Z,100681.47
2023-11-21T00:38:13.003Z,100678.97
2023-11-21T00:40:42.706Z,100673.06
2023-11-21T00:43:12.633Z,100679.94
2023-11-21T00:45:45.051Z,100673.25
2023-11-21T00:48:17.805Z,100680.94
2023-11-21T00:50:48.500Z,100674.03
2023-11-21T00:53:20.619Z,100673.25
2023-11-21T00:55:50.925Z,100674.03
2023-11-21T00:58:20.698Z,100668.16
2023-11-21T01:00:52.049Z,100675.81
2023-11-21T01:03:22.466Z,100670.81
2023-11-21T01:05:53.767Z,100672.66
2023-11-21T01:08:27.477Z,100682.09
2023-11-21T01:10:57.943Z,100686.47
2023-11-21T01:13:33.266Z,100684.03
2023-11-21T01:16:03.152Z,100686.78
2023-11-21T01:18:32.854Z,100694.53
2023-11-21T01:21:04.062Z,100698.81
2023-11-21T01:23:34.391Z,100702.19
2023-11-21T01:26:05.354Z,100704.72
2023-11-21T01:28:35.937Z,100697.00
2023-11-21T01:31:06.017Z,100700.44
2023-11-21T01:33:36.606Z,100697.06
2023-11-21T01:36:08.202Z,100710.66
2023-11-21T01:38:38.336Z,100707.31
2023-11-21T01:41:09.227Z,100714.16
2023-11-21T01:43:40.331Z,100715.03
2023-11-21T01:46:12.244Z,100709.97
2023-11-21T01:48:42.226Z,100704.00
2023-11-21T01:51:12.244Z,100707.34
2023-11-21T01:53:43.882Z,100710.81
2023-11-21T01:56:15.575Z,100716.75
2023-11-21T01:58:49.853Z,100716.00
2023-11-21T02:01:22.374Z,100719.53
2023-11-21T02:03:52.207Z,100714.59
2023-11-21T02:06:24.338Z,100714.78
2023-11-21T02:08:57.959Z,100726.75
2023-11-21T02:11:30.607Z,100724.19
2023-11-21T02:14:03.757Z,100728.59
2023-11-21T02:16:37.242Z,100732.97
2023-11-21T02:19:15.297Z,100727.09
2023-11-21T02:21:50.227Z,100732.19
2023-11-21T02:24:25.309Z,100739.84
2023-11-21T02:26:55.391Z,100739.19
2023-11-21T02:29:31.259Z,100745.16
2023-11-21T02:32:02.102Z,100743.59
2023-11-21T02:34:31.879Z,100740.16
2023-11-21T02:37:02.550Z,100747.72
2023-11-21T02:39:32.397Z,100752.81
2023-11-21T02:42:02.124Z,100751.97
2023-11-21T02:44:32.115Z,100756.19
2023-11-21T02:47:03.186Z,100755.34
2023-11-21T02:49:36.844Z,100754.56
2023-11-21T02:52:08.275Z,100752.09
2023-11-21T02:54:39.980Z,100761.59
2023-11-21T02:57:11.213Z,100766.69
2023-11-21T02:59:41.369Z,100764.94
2023-11-21T03:02:11.893Z,100758.19
2023-11-21T03:04:41.718Z,100770.06
2023-11-21T03:07:12.803Z,100763.28
2023-11-21T03:09:42.839Z,100765.03
2023-11-21T03:12:15.471Z,100776.06
2023-11-21T03:14:45.175Z,100782.91
2023-11-21T03:17:17.500Z,100779.50
2023-11-21T03:19:47.504Z,100780.44
2023-11-21T03:22:18.228Z,100770.25
2023-11-21T03:24:48.333Z,100771.16
2023-11-21T03:27:17.813Z,100772.91
2023-11-21T03:29:51.950Z,100777.25
2023-11-21T03:32:22.010Z,100786.53
2023-11-21T03:35:04.415Z,100790.78
2023-11-21T03:37:34.153Z,100801.00
2023-11-21T03:40:11.928Z,100808.63
2023-11-21T03:42:44.344Z,100807.66
2023-11-21T03:45:17.440Z,100803.28
2023-11-21T03:47:48.893Z,100805.72
2023-11-21T03:50:19.192Z,100808.19
2023-11-21T03:52:48.803Z,100808.00
2023-11-21T03:55:19.890Z,100817.28
2023-11-21T03:57:49.792Z,100820.53
2023-11-21T04:00:22.343Z,100822.13
2023-11-21T04:02:55.583Z,100825.41
2023-11-21T04:05:26.417Z,100821.09
2023-11-21T04:07:56.298Z,100825.28
2023-11-21T04:10:26.146Z,100833.69
2023-11-21T04:12:55.830Z,100830.22
2023-11-21T04:15:25.621Z,100828.44
2023-11-21T04:17:55.596Z,100829.22
2023-11-21T04:20:27.634Z,100830.84
2023-11-21T04:22:57.574Z,100825.75
2023-11-21T04:25:28.084Z,100826.59
2023-11-21T04:27:57.724Z,100835.84
2023-11-21T04:30:27.537Z,100829.81
2023-11-21T04:32:57.584Z,100825.53
2023-11-21T04:35:27.241Z,100828.03
2023-11-21T04:37:57.114Z,100833.94
2023-11-21T04:40:29.242Z,100830.59
2023-11-21T04:43:00.748Z,100824.84
2023-11-21T04:45:30.419Z,100837.88
2023-11-21T04:48:00.186Z,100834.78
2023-11-21T04:50:30.917Z,100837.47
2023-11-21T04:53:00.824Z,100845.19
2023-11-21T04:55:31.947Z,100848.56
2023-11-21T04:58:01.689Z,100847.00
2023-11-21T05:00:31.247Z,100853.03
2023-11-21T05:03:03.604Z,100855.59
2023-11-21T05:05:37.032Z,100858.25
2023-11-21T05:08:08.392Z,100857.34
2023-11-21T05:10:42.429Z,100858.19
2023-11-21T05:13:14.467Z,100863.34
2023-11-21T05:15:44.903Z,100867.66
2023-11-21T05:18:17.210Z,100866.91
2023-11-21T05:20:46.876Z,100866.97
2023-11-21T05:23:17.022Z,100871.22
2023-11-21T05:25:48.417Z,100863.66
2023-11-21T05:28:18.119Z,100879.94
2023-11-21T05:30:48.012Z,100879.13
2023-11-21T05:33:17.760Z,100884.25
2023-11-21T05:35:47.497Z,100891.16
2023-11-21T05:38:17.494Z,100903.06
2023-11-21T05:40:47.708Z,100904.91
2023-11-21T05:43:20.346Z,100902.47
2023-11-21T05:45:50.082Z,100902.72
2023-11-21T05:48:19.974Z,100913.91
2023-11-21T05:50:52.790Z,100918.31
2023-11-21T05:53:22.561Z,100917.69
2023-11-21T05:55:52.385Z,100925.34
2023-11-21T05:58:22.280Z,100927.06
2023-11-21T06:00:52.210Z,100937.19
2023-11-21T06:03:50.356Z,100927.13
2023-11-21T06:06:28.886Z,100940.78
2023-11-21T06:09:06.648Z,100946.78
2023-11-21T06:11:38.390Z,100943.50
2023-11-21T06:14:17.945Z,100946.88
2023-11-21T06:17:05.520Z,100952.50
2023-11-21T06:19:38.947Z,100954.00
2023-11-21T06:22:10.882Z,100961.47
2023-11-21T06:24:46.597Z,100964.78
2023-11-21T06:27:18.522Z,100965.63
2023-11-21T06:29:50.021Z,100971.47
2023-11-21T06:32:20.072Z,100978.19
2023-11-21T06:34:51.919Z,100981.53
2023-11-21T06:37:26.444Z,100982.28
2023-11-21T06:40:00.647Z,100981.41
2023-11-21T06:42:33.080Z,100996.66
2023-11-21T06:45:08.296Z,100992.38
2023-11-21T06:47:38.757Z,101001.63
2023-11-21T06:50:11.585Z,101006.56
2023-11-21T06:52:42.229Z,101005.56
2023-11-21T06:55:13.698Z,101013.97
2023-11-21T06:57:43.387Z,101013.88
2023-11-21T07:00:15.688Z,101024.81
2023-11-21T07:02:46.113Z,101020.50
2023-11-21T07:05:24.546Z,101022.13
2023-11-21T07:07:57.069Z,101026.41
2023-11-21T07:10:26.974Z,101024.66
2023-11-21T07:12:57.025Z,101033.97
2023-11-21T07:15:29.154Z,101026.31
2023-11-21T07:17:59.315Z,101023.72
2023-11-21T07:20:32.923Z,101027.97
2023-11-21T07:23:04.050Z,101028.81
2023-11-21T07:25:36.347Z,101028.88
2023-11-21T07:28:09.299Z,101038.19
2023-11-21T07:30:40.240Z,101032.25
2023-11-21T07:33:10.930Z,101032.25
2023-11-21T07:35:40.829Z,101042.38
2023-11-21T07:38:10.820Z,101043.94
2023-11-21T07:40:40.665Z,101045.59
2023-11-21T07:43:13.308Z,101045.47
2023-11-21T07:45:46.967Z,101051.31
2023-11-21T07:48:17.070Z,101054.59
2023-11-21T07:50:48.931Z,101046.00
2023-11-21T07:53:19.245Z,101050.13
2023-11-21T07:55:50.789Z,101054.31
2023-11-21T07:58:21.578Z,101061.91
2023-11-21T08:00:52.848Z,101070.34
2023-11-21T08:03:23.567Z,101083.78
2023-11-21T08:05:53.184Z,101098.19
2023-11-21T08:08:23.523Z,101092.13
2023-11-21T08:11:00.451Z,101101.28
2023-11-21T08:13:34.241Z,101110.53
2023-11-21T08:16:10.357Z,101118.34
2023-11-21T08:18:44.591Z,101123.56
2023-11-21T08:21:17.374Z,101132.09
2023-11-21T08:23:46.905Z,101136.38
2023-11-21T08:26:21.342Z,101132.09
2023-11-21T08:28:51.854Z,101137.94
2023-11-21T08:31:31.231Z,101142.03
2023-11-21T08:34:00.899Z,101139.22
2023-11-21T08:36:30.938Z,101145.81
2023-11-21T08:39:01.049Z,101149.00
2023-11-21T08:41:34.529Z,101150.47
2023-11-21T08:44:09.083Z,101146.94
2023-11-21T08:46:48.972Z,101144.22
2023-11-21T08:49:19.810Z,101140.56
2023-11-21T08:51:49.674Z,101148.16
2023-11-21T08:54:19.284Z,101154.91
2023-11-21T08:56:50.321Z,101155.94
2023-11-21T08:59:22.716Z,101165.13
2023-11-21T09:01:53.079Z,101165.06
2023-11-21T09:04:22.952Z,101165.03
2023-11-21T09:06:52.652Z,101166.72
2023-11-21T09:09:23.395Z,101184.78
2023-11-21T09:11:53.412Z,101189.13
2023-11-21T09:14:23.259Z,101183.25
2023-11-21T09:16:54.377Z,101194.34
2023-11-21T09:19:24.818Z,101191.03
2023-11-21T09:21:56.383Z,101201.38
2023-11-21T09:24:25.970Z,101199.72
2023-11-21T09:26:55.621Z,101199.75
2023-11-21T09:29:26.074Z,101192.03
2023-11-21T09:32:01.398Z,101203.94
2023-11-21T09:34:31.126Z,101206.59
2023-11-21T09:37:01.640Z,101205.63
2023-11-21T09:39:37.685Z,101208.91
2023-11-21T09:43:05.028Z,101216.34
2023-11-21T09:45:44.725Z,101223.03
2023-11-21T09:48:18.676Z,101222.03
2023-11-21T09:50:54.972Z,101222.00
2023-11-21T09:53:34.122Z,101215.16
2023-11-21T09:56:07.410Z,101219.25
2023-11-21T09:58:38.481Z,101222.28
2023-11-21T10:01:11.857Z,101219.41
2023-11-21T10:03:44.952Z,101222.16
2023-11-21T10:06:22.909Z,101228.00
2023-11-21T10:09:01.081Z,101224.44
2023-11-21T10:11:38.976Z,101228.63
2023-11-21T10:14:16.254Z,101227.81
2023-11-21T10:16:51.431Z,101225.34
2023-11-21T10:19:25.968Z,101232.09
2023-11-21T10:22:02.035Z,101239.00
2023-11-21T10:24:38.142Z,101244.22
2023-11-21T10:27:11.488Z,101253.53
2023-11-21T10:29:45.851Z,101252.34
2023-11-21T10:32:16.019Z,101247.75
2023-11-21T10:34:58.711Z,101243.75
2023-11-21T10:37:31.476Z,101246.94
2023-11-21T10:40:07.315Z,101241.47
2023-11-21T10:42:37.366Z,101246.28
2023-11-21T10:45:17.427Z,101246.22
2023-11-21T10:47:49.207Z,101251.25
2023-11-21T10:50:23.462Z,101257.16
2023-11-21T10:52:54.210Z,101252.31
2023-11-21T10:55:30.634Z,101261.94
2023-11-21T10:58:07.910Z,101266.28
2023-11-21T11:00:37.846Z,101266.19
2023-11-21T11:03:16.851Z,101266.81
2023-11-21T11:05:57.921Z,101276.81
2023-11-21T11:08:30.731Z,101272.19
2023-11-21T11:11:02.385Z,101270.53
2023-11-21T11:13:33.831Z,101275.66
2023-11-21T11:16:14.490Z,101277.28
2023-11-21T11:18:44.229Z,101276.25
2023-11-21T11:22:14.802Z,101275.16
2023-11-21T11:25:41.971Z,101271.06
2023-11-21T11:28:25.297Z,101280.50
2023-11-21T11:31:51.256Z,101284.16
2023-11-21T11:34:56.170Z,101291.03
2023-11-21T11:37:27.424Z,101288.69
2023-11-21T11:39:59.461Z,101287.63
2023-11-21T11:42:35.195Z,101286.63
2023-11-21T11:45:35.871Z,101281.72
2023-11-21T11:48:08.601Z,101283.91
2023-11-21T11:50:39.225Z,101298.47
2023-11-21T11:53:22.013Z,101301.16
2023-11-21T11:56:36.505Z,101301.34
2023-11-21T11:59:11.722Z,101303.13
2023-11-21T12:01:48.993Z,101298.94
2023-11-21T12:04:43.229Z,101306.81
2023-11-21T12:07:17.196Z,101315.34
2023-11-21T12:09:50.882Z,101313.91
2023-11-21T12:12:25.040Z,101314.91
2023-11-21T12:14:55.835Z,101315.94
2023-11-21T12:17:27.419Z,101310.91
2023-11-21T12:20:06.142Z,101317.66
2023-11-21T12:22:37.000Z,101330.25
2023-11-21T12:25:09.210Z,101324.16
2023-11-21T12:27:39.028Z,101327.69
2023-11-21T12:30:17.709Z,101328.56
2023-11-21T12:32:58.900Z,101338.13
2023-11-21T12:35:37.443Z,101332.81
2023-11-21T12:38:11.261Z,101342.31
2023-11-21T12:40:42.518Z,101336.19
2023-11-21T12:43:13.333Z,101343.94
2023-11-21T12:45:43.663Z,101350.00
2023-11-21T12:48:15.649Z,101350.91
2023-11-21T12:50:56.975Z,101352.59
2023-11-21T12:53:27.676Z,101366.50
2023-11-21T12:56:03.074Z,101364.88
2023-11-21T12:58:33.148Z,101368.56
2023-11-21T13:01:06.249Z,101365.88
2023-11-21T13:03:40.353Z,101373.47
2023-11-21T13:06:14.878Z,101373.94
2023-11-21T13:08:47.227Z,101380.25
2023-11-21T13:11:19.538Z,101377.69
2023-11-21T13:13:49.384Z,101381.31
2023-11-21T13:16:19.661Z,101383.69
2023-11-21T13:18:50.396Z,101380.16
2023-11-21T13:21:21.043Z,101382.91
2023-11-21T13:23:58.131Z,101386.31
2023-11-21T13:26:29.756Z,101383.81
2023-11-21T13:29:02.303Z,101388.94
2023-11-21T13:31:41.398Z,101387.09
2023-11-21T13:34:18.554Z,101394.59
2023-11-21T13:37:09.879Z,101395.50
2023-11-21T13:39:52.671Z,101399.84
2023-11-21T13:42:31.107Z,101401.41
2023-11-21T13:45:01.106Z,101404.03
2023-11-21T13:47:37.789Z,101405.03
2023-11-21T13:50:31.305Z,101407.44
2023-11-21T13:53:24.662Z,101407.53
2023-11-21T13:56:00.239Z,101417.66
2023-11-21T13:58:58.379Z,101416.88
2023-11-21T14:01:34.088Z,101415.09
2023-11-21T14:04:42.549Z,101416.75
2023-11-21T14:10:29.738Z,101426.38
2023-11-21T14:13:02.443Z,101434.25
2023-11-21T14:15:47.340Z,101432.56
2023-11-21T14:19:06.619Z,101429.16
2023-11-21T14:21:37.190Z,101437.06
2023-11-21T14:24:16.334Z,101439.81
2023-11-21T14:26:50.626Z,101448.31
2023-11-21T14:29:26.143Z,101450.91
2023-11-21T14:32:01.027Z,101453.44
2023-11-21T14:34:30.720Z,101456.91
2023-11-21T14:37:00.969Z,101460.25
2023-11-21T14:39:32.138Z,101449.13
2023-11-21T14:42:08.807Z,101461.94
2023-11-21T14:44:46.109Z,101468.56
2023-11-21T14:47:19.515Z,101481.34
2023-11-21T14:54:01.782Z,101489.84
2023-11-21T14:56:44.745Z,101500.00
2023-11-21T14:59:20.389Z,101511.94
2023-11-21T15:02:02.426Z,101509.44
2023-11-21T15:04:41.967Z,101512.06
2023-11-21T15:07:14.411Z,101526.50
2023-11-21T15:09:48.413Z,101524.00
2023-11-21T15:12:18.998Z,101525.78
2023-11-21T15:14:59.669Z,101530.84
2023-11-21T15:17:34.944Z,101532.66
2023-11-21T15:20:10.784Z,101547.28
2023-11-21T15:22:42.867Z,101537.22
2023-11-21T15:25:16.086Z,101538.06
2023-11-21T15:27:46.319Z,101549.28
2023-11-21T15:30:16.248Z,101552.66
2023-11-21T15:32:45.931Z,101552.16
2023-11-21T15:35:18.879Z,101554.94
2023-11-21T15:37:49.900Z,101569.56
2023-11-21T15:40:21.495Z,101563.78
2023-11-21T15:42:53.447Z,101569.88
2023-11-21T15:45:28.674Z,101569.13
2023-11-21T15:48:04.275Z,101574.31
2023-11-21T15:50:37.567Z,101581.16
2023-11-21T15:53:09.603Z,101595.84
2023-11-21T15:55:45.993Z,101595.78
2023-11-21T15:58:16.417Z,101606.09
2023-11-21T16:00:46.447Z,101615.69
2023-11-21T16:03:19.806Z,101626.19
2023-11-21T16:05:51.084Z,101635.03
2023-11-21T16:08:22.248Z,101635.03
2023-11-21T16:10:52.796Z,101650.38
2023-11-21T16:13:22.574Z,101650.38
2023-11-21T16:15:53.453Z,101664.28
2023-11-21T16:18:25.769Z,101661.75
2023-11-21T16:20:55.530Z,101667.69
2023-11-21T16:23:25.486Z,101675.66
2023-11-21T16:25:59.559Z,101689.31
2023-11-21T16:28:29.370Z,101697.94
2023-11-21T16:30:59.773Z,101699.63
2023-11-21T16:33:30.810Z,101703.06
2023-11-21T16:36:01.842Z,101713.38
2023-11-21T16:38:31.654Z,101721.00
2023-11-21T16:41:04.970Z,101721.91
2023-11-21T16:43:36.058Z,101728.69
2023-11-21T16:46:05.926Z,101726.09
2023-11-21T16:48:36.289Z,101734.78
2023-11-21T16:51:06.485Z,101738.22
2023-11-21T16:53:36.141Z,101740.69
2023-11-21T16:56:05.925Z,101753.41
2023-11-21T16:58:38.051Z,101750.13
2023-11-21T17:01:11.482Z,101755.28
2023-11-21T17:03:41.197Z,101771.50
2023-11-21T17:06:13.917Z,101785.22
2023-11-21T17:08:48.557Z,101787.78
2023-11-21T17:11:18.594Z,101781.06
2023-11-21T17:13:49.439Z,101790.50
2023-11-21T17:16:20.066Z,101790.56
2023-11-21T17:18:50.011Z,101806.72
2023-11-21T17:21:26.141Z,101810.16
2023-11-21T17:24:01.027Z,101801.66
2023-11-21T17:26:31.202Z,101810.19
2023-11-21T17:29:05.920Z,101815.19
2023-11-21T17:31:35.418Z,101818.53
2023-11-21T17:34:05.337Z,101824.59
2023-11-21T17:36:35.345Z,101838.25
2023-11-21T17:41:46.805Z,101846.13
2023-11-21T17:44:17.623Z,101857.94
2023-11-21T17:46:47.441Z,101852.06
2023-11-21T17:49:16.974Z,101856.41
2023-11-21T17:51:47.429Z,101852.13
2023-11-21T17:54:17.172Z,101864.94
2023-11-21T17:56:52.629Z,101866.69
2023-11-21T17:59:24.891Z,101867.53
2023-11-21T18:01:55.579Z,101875.22
2023-11-21T18:04:27.056Z,101879.38
2023-11-21T18:07:00.285Z,101876.03
2023-11-21T18:09:29.944Z,101890.53
2023-11-21T18:11:59.927Z,101895.63
2023-11-21T18:14:31.094Z,101898.16
2023-11-21T18:17:00.969Z,101903.25
2023-11-21T18:19:37.499Z,101902.38
2023-11-21T18:22:09.629Z,101897.34
2023-11-21T18:24:42.047Z,101912.66
2023-11-21T18:27:11.914Z,101910.97
2023-11-21T18:29:41.628Z,101921.16
2023-11-21T18:32:14.907Z,101921.13
2023-11-21T18:34:48.960Z,101928.78
2023-11-21T18:37:18.860Z,101929.53
2023-11-21T18:39:51.888Z,101931.13
2023-11-21T18:42:26.593Z,101926.97
2023-11-21T18:44:59.268Z,101929.44
2023-11-21T18:47:30.746Z,101928.66
2023-11-21T18:50:00.804Z,101932.84
2023-11-21T18:52:31.918Z,101935.41
2023-11-21T18:55:05.712Z,101929.53
2023-11-21T18:57:36.969Z,101943.06
2023-11-21T19:00:18.909Z,101952.47
2023-11-21T19:02:49.268Z,101961.81
2023-11-21T19:05:19.977Z,101955.03
2023-11-21T19:07:49.685Z,101956.63
2023-11-21T19:10:25.013Z,101960.94
2023-11-21T19:12:55.898Z,101975.31
2023-11-21T19:15:27.244Z,101961.75
2023-11-21T19:18:00.519Z,101965.97
2023-11-21T19:20:30.242Z,101966.00
2023-11-21T19:23:01.084Z,101967.81
2023-11-21T19:25:30.975Z,101972.91
2023-11-21T19:28:01.328Z,101967.03
2023-11-21T19:30:43.497Z,101978.84
2023-11-21T19:33:15.702Z,101971.25
2023-11-21T19:35:47.133Z,101978.06
2023-11-21T19:38:18.321Z,101987.47
2023-11-21T19:40:49.110Z,101980.66
2023-11-21T19:43:20.461Z,101980.56
2023-11-21T19:45:51.640Z,101982.34
2023-11-21T19:48:28.549Z,101988.19
2023-11-21T19:50:58.226Z,101996.72
2023-11-21T19:53:28.507Z,101995.84
2023-11-21T19:55:58.139Z,102001.00
2023-11-21T19:58:28.204Z,102009.53
2023-11-21T20:00:58.386Z,102007.75
2023-11-21T20:06:08.562Z,102016.19
2023-11-21T20:08:39.474Z,102029.88
2023-11-21T20:11:10.125Z,102024.75
2023-11-21T20:13:40.046Z,102034.84
2023-11-21T20:16:09.998Z,102047.69
2023-11-21T20:18:40.941Z,102041.78
2023-11-21T20:21:12.476Z,102046.91
2023-11-21T20:23:42.213Z,102054.56
2023-11-21T20:26:11.936Z,102052.03
2023-11-21T20:28:50.236Z,102049.50
2023-11-21T20:31:29.259Z,102058.03
2023-11-21T20:34:00.341Z,102069.13
2023-11-21T20:36:30.448Z,102080.19
2023-11-21T20:39:02.358Z,102077.69
2023-11-21T20:41:32.248Z,102075.97
2023-11-21T20:44:07.691Z,102077.78
2023-11-21T20:46:53.188Z,102082.94
2023-11-21T20:49:29.837Z,102092.25
2023-11-21T20:52:05.718Z,102102.59
2023-11-21T20:54:35.579Z,102109.38
2023-11-21T20:57:05.516Z,102099.25
2023-11-21T20:59:35.258Z,102098.44
2023-11-21T21:02:08.513Z,102101.84
2023-11-21T21:04:39.159Z,102099.38
2023-11-21T21:07:10.943Z,102087.44
2023-11-21T21:09:44.431Z,102096.00
2023-11-21T21:12:14.958Z,102095.16
2023-11-21T21:14:44.684Z,102088.38
2023-11-21T21:17:14.902Z,102102.00
2023-11-21T21:19:44.403Z,102107.13
2023-11-21T21:22:16.704Z,102113.06
2023-11-21T21:24:53.532Z,102119.88
2023-11-21T21:27:32.464Z,102108.84
2023-11-21T21:30:12.478Z,102113.94
2023-11-21T21:32:42.466Z,102119.06
2023-11-21T21:35:15.307Z,102113.94
2023-11-21T21:37:46.292Z,102129.22
2023-11-21T21:40:16.679Z,102124.13
2023-11-21T21:42:46.433Z,102131.75
2023-11-21T21:45:16.099Z,102138.53
2023-11-21T21:47:46.323Z,102147.91
2023-11-21T21:50:16.348Z,102149.56
2023-11-21T21:52:47.596Z,102163.16
2023-11-21T21:55:19.535Z,102162.31
2023-11-21T21:57:49.628Z,102170.81
2023-11-21T22:00:21.602Z,102165.72
2023-11-21T22:02:52.461Z,102179.31
2023-11-21T22:05:23.138Z,102177.56
2023-11-21T22:07:53.329Z,102175.03
2023-11-21T22:10:23.472Z,102180.16
2023-11-21T22:12:56.518Z,102184.34
2023-11-21T22:15:26.900Z,102183.53
2023-11-21T22:17:58.449Z,102184.41
2023-11-21T22:20:29.679Z,102178.47
2023-11-21T22:22:59.505Z,102179.34
2023-11-21T22:25:31.063Z,102181.03
2023-11-21T22:28:03.148Z,102187.84
2023-11-21T22:30:32.775Z,102187.84
2023-11-21T22:33:03.788Z,102192.09
2023-11-21T22:35:37.259Z,102184.47
2023-11-21T22:38:08.145Z,102185.28
2023-11-21T22:40:37.714Z,102191.25
2023-11-21T22:43:08.047Z,102192.09
2023-11-21T22:48:13.735Z,102192.94
2023-11-21T22:50:43.529Z,102204.88
2023-11-21T22:53:13.710Z,102220.19
2023-11-21T22:55:43.434Z,102230.38
2023-11-21T22:58:13.013Z,102227.00
2023-11-21T23:00:42.604Z,102231.22
2023-11-21T23:03:14.316Z,102235.47
2023-11-21T23:05:44.330Z,102231.22
2023-11-21T23:08:14.907Z,102244.84
2023-11-21T23:10:46.194Z,102255.03
2023-11-21T23:13:21.132Z,102252.47
2023-11-21T23:15:58.903Z,102255.84
2023-11-21T23:18:32.578Z,102249.03
2023-11-21T23:21:13.783Z,102252.44
2023-11-21T23:23:46.163Z,102249.88
2023-11-21T23:26:20.734Z,102253.28
2023-11-21T23:28:50.840Z,102253.28
2023-11-21T23:31:20.659Z,102259.22
2023-11-21T23:33:50.409Z,102258.38
2023-11-21T23:36:28.458Z,102269.38
2023-11-21T23:38:58.130Z,102263.41
2023-11-21T23:41:27.864Z,102258.31
2023-11-21T23:44:06.633Z,102271.84
2023-11-21T23:46:48.090Z,102270.97
2023-11-21T23:49:27.678Z,102279.41
2023-11-21T23:52:10.914Z,102268.38
2023-11-21T23:54:52.923Z,102278.56
2023-11-21T23:57:32.538Z,102279.44
